Kvitbjoern — LM9158 — position and weather

sailwx.info

Track history (hours):
 
Tides and Currents Weather Stations Pressure Air Temp Water Temp Dewpoint Dewpoint Depression Visibility Wind Speed Wind Dir Waves Ship Positions

Kvitbjoern

Last reported at 2016-Feb-09 16:32 UTC. Time now 2016-Feb-10 00:33 UTC.
Position N 66°22' E 012°21'.

Length 10 m.

Type: Fishing. MMSI: 257454420.

Date/timePositionNaut miles runAvg speedWind from/ knotsBaromVisibWave heightAir tempDewpointWater temp
2016-Feb-09 16:32N 66°22' E 012°21'4 1.5
2016-Feb-09 14:04N 66°22' E 012°31'2 1.7
2016-Feb-09 13:10N 66°22' E 012°27'1 0.8
2016-Feb-09 12:28N 66°21' E 012°25'1 0.6
2016-Feb-09 11:22N 66°21' E 012°24'0 0.4
2016-Feb-09 10:17N 66°21' E 012°24'0 0.4
2016-Feb-09 09:23N 66°20' E 012°24'2 2.5
2016-Feb-09 08:33N 66°22' E 012°22'2 1.8
2016-Feb-09 07:33N 66°21' E 012°24'2 1.6
2016-Feb-09 06:30N 66°22' E 012°21'  
2016-Feb-05 15:33N 66°22' E 012°21'2 1.5
2016-Feb-05 14:33N 66°23' E 012°25'2 0.9
2016-Feb-05 12:25N 66°24' E 012°29'1 1.2
2016-Feb-05 11:31N 66°23' E 012°27'2 1.6
2016-Feb-05 10:28N 66°22' E 012°24'0 0.3
2016-Feb-05 09:31N 66°22' E 012°24'2 2.3
2016-Feb-05 08:33N 66°24' E 012°26'0 0.4
2016-Feb-05 07:33N 66°24' E 012°27'3 0.3
2016-Feb-04 21:16N 66°22' E 012°21'0 0.0
2016-Feb-03 14:31N 66°22' E 012°21'0 0.3
2016-Feb-03 13:33N 66°22' E 012°22'2 1.5
2016-Feb-03 12:28N 66°22' E 012°26'0 0.4
2016-Feb-03 11:24N 66°22' E 012°25'2 2.6
2016-Feb-03 10:30N 66°24' E 012°26'2 2.0
2016-Feb-03 09:29N 66°22' E 012°24'1 0.8
2016-Feb-03 08:33N 66°21' E 012°24'1 0.7
2016-Feb-03 07:33N 66°22' E 012°25'2 1.7
2016-Feb-03 06:32N 66°22' E 012°21'0 0.0
2016-Feb-02 20:31N 66°22' E 012°21'0 0.0
2016-Feb-02 13:33N 66°22' E 012°21'0 0.0
2016-Feb-02 12:33N 66°22' E 012°21'  
Track history (hours):
 
Tides and Currents Weather Stations Pressure Air Temp Water Temp Dewpoint Dewpoint Depression Visibility Wind Speed Wind Dir Waves Ship Positions

Kvitbjoern

Last reported at 2016-Feb-09 16:32 UTC. Time now 2016-Feb-10 00:33 UTC.
Position N 66°22' E 012°21'.

Length 10 m.

Type: Fishing. MMSI: 257454420.

Date/timePositionNaut miles runAvg speedWind from/ knotsBaromVisibWave heightAir tempDewpointWater temp
2016-Feb-09 16:32N 66°22' E 012°21'4 1.5
2016-Feb-09 14:04N 66°22' E 012°31'2 1.7
2016-Feb-09 13:10N 66°22' E 012°27'1 0.8
2016-Feb-09 12:28N 66°21' E 012°25'1 0.6
2016-Feb-09 11:22N 66°21' E 012°24'0 0.4
2016-Feb-09 10:17N 66°21' E 012°24'0 0.4
2016-Feb-09 09:23N 66°20' E 012°24'2 2.5
2016-Feb-09 08:33N 66°22' E 012°22'2 1.8
2016-Feb-09 07:33N 66°21' E 012°24'2 1.6
2016-Feb-09 06:30N 66°22' E 012°21'  
2016-Feb-05 15:33N 66°22' E 012°21'2 1.5
2016-Feb-05 14:33N 66°23' E 012°25'2 0.9
2016-Feb-05 12:25N 66°24' E 012°29'1 1.2
2016-Feb-05 11:31N 66°23' E 012°27'2 1.6
2016-Feb-05 10:28N 66°22' E 012°24'0 0.3
2016-Feb-05 09:31N 66°22' E 012°24'2 2.3
2016-Feb-05 08:33N 66°24' E 012°26'0 0.4
2016-Feb-05 07:33N 66°24' E 012°27'3 0.3
2016-Feb-04 21:16N 66°22' E 012°21'0 0.0
2016-Feb-03 14:31N 66°22' E 012°21'0 0.3
2016-Feb-03 13:33N 66°22' E 012°22'2 1.5
2016-Feb-03 12:28N 66°22' E 012°26'0 0.4
2016-Feb-03 11:24N 66°22' E 012°25'2 2.6
2016-Feb-03 10:30N 66°24' E 012°26'2 2.0
2016-Feb-03 09:29N 66°22' E 012°24'1 0.8
2016-Feb-03 08:33N 66°21' E 012°24'1 0.7
2016-Feb-03 07:33N 66°22' E 012°25'2 1.7
2016-Feb-03 06:32N 66°22' E 012°21'0 0.0
2016-Feb-02 20:31N 66°22' E 012°21'0 0.0
2016-Feb-02 13:33N 66°22' E 012°21'0 0.0
2016-Feb-02 12:33N 66°22' E 012°21'  

Dump ship's entire track history